createdAt,value
2023-03-27T20:56:23.351Z,93.13
2023-03-27T20:58:51.704Z,93.11
2023-03-27T21:01:19.743Z,93.68
2023-03-27T21:03:49.819Z,92.62
2023-03-27T21:06:20.070Z,92.32
2023-03-27T21:08:48.182Z,92.21
2023-03-27T21:11:16.179Z,92.73
2023-03-27T21:13:43.713Z,92.59
2023-03-27T21:16:11.460Z,92.77
2023-03-27T21:18:38.960Z,92.50
2023-03-27T21:21:06.848Z,92.55
2023-03-27T21:23:35.419Z,92.10
2023-03-27T21:26:03.206Z,91.52
2023-03-27T21:28:31.380Z,91.44
2023-03-27T21:30:59.643Z,92.18
2023-03-27T21:33:27.513Z,91.81
2023-03-27T21:35:55.038Z,91.70
2023-03-27T21:38:22.879Z,91.93
2023-03-27T21:40:50.979Z,91.87
2023-03-27T21:43:18.570Z,91.99
2023-03-27T21:45:49.053Z,91.77
2023-03-27T21:48:16.973Z,92.55
2023-03-27T21:50:47.207Z,92.08
2023-03-27T21:53:16.954Z,90.93
2023-03-27T21:55:46.277Z,90.01
2023-03-27T21:58:14.095Z,90.43
2023-03-27T22:00:45.135Z,90.34
2023-03-27T22:03:12.865Z,90.02
2023-03-27T22:05:40.708Z,88.94
2023-03-27T22:08:08.629Z,89.00
2023-03-27T22:10:38.470Z,89.46
2023-03-27T22:13:06.663Z,88.32
2023-03-27T22:15:34.207Z,89.15
2023-03-27T22:18:22.120Z,87.53
2023-03-27T22:21:32.084Z,87.87
2023-03-27T22:24:20.073Z,87.66
2023-03-27T22:27:01.681Z,88.37
2023-03-27T22:29:42.070Z,88.62
2023-03-27T22:32:23.181Z,88.63
2023-03-27T22:35:04.089Z,88.94
2023-03-27T22:37:46.167Z,88.41
2023-03-27T22:40:30.080Z,89.10
2023-03-27T22:43:11.194Z,89.07
2023-03-27T22:46:12.110Z,89.51
2023-03-27T22:48:54.261Z,89.92
2023-03-27T22:51:36.091Z,89.34
2023-03-27T22:54:31.214Z,89.82
2023-03-27T22:57:19.260Z,90.63
2023-03-27T23:00:00.335Z,90.94
2023-03-27T23:02:41.148Z,91.06
2023-03-27T23:05:22.229Z,91.44
2023-03-27T23:08:03.143Z,91.83
2023-03-27T23:10:44.185Z,91.57
2023-03-27T23:13:25.068Z,91.11
2023-03-27T23:16:06.239Z,91.74
2023-03-27T23:18:47.120Z,91.72
2023-03-27T23:21:28.210Z,91.49
2023-03-27T23:24:09.097Z,92.03
2023-03-27T23:26:50.389Z,92.19
2023-03-27T23:29:31.118Z,92.80
2023-03-27T23:32:12.223Z,92.77
2023-03-27T23:34:53.118Z,92.93
2023-03-27T23:37:35.406Z,92.78
2023-03-27T23:40:19.043Z,93.54
2023-03-27T23:43:00.202Z,93.81
2023-03-27T23:45:41.131Z,94.07
2023-03-27T23:48:22.226Z,93.67
2023-03-27T23:50:52.033Z,93.72
2023-03-27T23:53:22.048Z,93.85
2023-03-27T23:55:49.821Z,93.49
2023-03-27T23:58:18.774Z,94.25
